Terminal Aerodrome Forecast
Issued by NWS

Home | Current Version | Previous Version | Text Only | Print | Product List | Glossary On
Versions: 1 2 3 4 5 6 7 8 9 10 11 12 13 14 15 16 17 18 19
000
FTUS43 KAPX 300535
TAFPLN
TAF
KPLN 300535Z 3006/3106 VRB03KT P6SM BKN250
     FM300900 VRB03KT 5SM BR VCSH SCT050 BKN150
     FM301100 25005KT P6SM VCSH SCT050 BKN120
     FM301500 28006KT P6SM VCSH SCT050 BKN100
     FM302200 31008KT P6SM VCSH FEW050 SCT100
     FM310100 34007KT P6SM SCT050 SCT150=

USA.gov is the U.S. government's official web portal to all federal, state and local government web resources and services.